createdAt,value
2018-12-02T00:00:36.295Z,7.90
2018-12-02T00:03:06.425Z,7.90
2018-12-02T00:05:34.600Z,7.90
2018-12-02T00:08:03.506Z,7.90
2018-12-02T00:10:31.731Z,7.90
2018-12-02T00:12:59.999Z,7.90
2018-12-02T00:15:29.105Z,7.90
2018-12-02T00:17:58.470Z,7.90
2018-12-02T00:20:26.687Z,7.90
2018-12-02T00:22:54.883Z,7.90
2018-12-02T00:25:23.165Z,7.80
2018-12-02T00:27:53.590Z,7.80
2018-12-02T00:30:24.007Z,7.80
2018-12-02T00:32:52.400Z,7.90
2018-12-02T00:35:20.673Z,7.90
2018-12-02T00:37:51.215Z,7.90
2018-12-02T00:40:20.365Z,7.90
2018-12-02T00:42:50.589Z,7.90
2018-12-02T00:45:19.989Z,7.90
2018-12-02T00:47:48.273Z,7.90
2018-12-02T00:50:17.406Z,7.90
2018-12-02T00:52:47.896Z,8.00
2018-12-02T00:55:19.489Z,8.00
2018-12-02T00:57:47.923Z,8.00
2018-12-02T01:00:16.766Z,8.00
2018-12-02T01:02:45.920Z,8.00
2018-12-02T01:05:15.965Z,8.00
2018-12-02T01:07:44.223Z,8.00
2018-12-02T01:10:18.467Z,8.10
2018-12-02T01:12:47.449Z,8.10
2018-12-02T01:15:16.967Z,8.10
2018-12-02T01:17:45.227Z,8.10
2018-12-02T01:20:16.786Z,8.10
2018-12-02T01:22:45.027Z,8.10
2018-12-02T01:25:13.886Z,8.20
2018-12-02T01:27:42.473Z,8.20
2018-12-02T01:30:25.807Z,8.20
2018-12-02T01:32:54.817Z,8.20
2018-12-02T01:35:23.093Z,8.20
2018-12-02T01:37:51.509Z,8.30
2018-12-02T01:40:21.388Z,8.30
2018-12-02T01:42:50.184Z,8.30
2018-12-02T01:45:21.281Z,8.30
2018-12-02T01:47:49.499Z,8.30
2018-12-02T01:50:20.395Z,8.30
2018-12-02T01:52:50.754Z,8.40
2018-12-02T01:55:19.010Z,8.40
2018-12-02T01:57:47.229Z,8.40
2018-12-02T02:00:18.421Z,8.40
2018-12-02T02:02:46.677Z,8.40
2018-12-02T02:05:15.760Z,8.40
2018-12-02T02:07:43.961Z,8.40
2018-12-02T02:10:24.186Z,8.40
2018-12-02T02:12:52.400Z,8.40
2018-12-02T02:15:20.742Z,8.50
2018-12-02T02:17:49.034Z,8.50
2018-12-02T02:20:19.294Z,8.50
2018-12-02T02:22:47.689Z,8.50
2018-12-02T02:25:16.908Z,8.50
2018-12-02T02:27:46.258Z,8.50
2018-12-02T02:30:15.608Z,8.50
2018-12-02T02:32:43.814Z,8.50
2018-12-02T02:35:12.432Z,8.50
2018-12-02T02:37:41.025Z,8.50
2018-12-02T02:40:15.233Z,8.50
2018-12-02T02:42:43.427Z,8.50
2018-12-02T02:45:12.362Z,8.50
2018-12-02T02:47:40.641Z,8.50
2018-12-02T02:50:15.169Z,8.40
2018-12-02T02:52:44.605Z,8.50
2018-12-02T02:55:12.785Z,8.50
2018-12-02T02:57:41.042Z,8.50
2018-12-02T03:00:12.671Z,8.50
2018-12-02T03:02:41.021Z,8.50
2018-12-02T03:05:10.196Z,8.50
2018-12-02T03:07:38.447Z,8.50
2018-12-02T03:10:14.217Z,8.50
2018-12-02T03:12:42.915Z,8.50
2018-12-02T03:15:14.037Z,8.40
2018-12-02T03:17:42.658Z,8.50
2018-12-02T03:20:12.902Z,8.50
2018-12-02T03:22:42.083Z,8.50
2018-12-02T03:25:11.446Z,8.50
2018-12-02T03:27:39.693Z,8.50
2018-12-02T03:30:13.049Z,8.50
2018-12-02T03:32:41.315Z,8.50
2018-12-02T03:35:10.719Z,8.60
2018-12-02T03:37:38.954Z,8.60
2018-12-02T03:40:11.472Z,8.60
2018-12-02T03:42:39.722Z,8.60
2018-12-02T03:45:09.609Z,8.60
2018-12-02T03:47:37.849Z,8.60
2018-12-02T03:50:09.644Z,8.70
2018-12-02T03:52:37.885Z,8.60
2018-12-02T03:55:07.593Z,8.70
2018-12-02T03:57:35.825Z,8.60
2018-12-02T04:00:06.154Z,8.60
2018-12-02T04:02:34.361Z,8.60
2018-12-02T04:05:02.573Z,8.60
2018-12-02T04:07:30.826Z,8.60
2018-12-02T04:09:59.026Z,8.60
2018-12-02T04:12:27.253Z,8.60
2018-12-02T04:14:55.465Z,8.60
2018-12-02T04:17:23.754Z,8.60
2018-12-02T04:19:51.983Z,8.60
2018-12-02T04:22:20.192Z,8.60
2018-12-02T04:24:48.394Z,8.60
2018-12-02T04:27:16.653Z,8.60
2018-12-02T04:29:44.893Z,8.60
2018-12-02T04:32:13.097Z,8.50
2018-12-02T04:34:41.301Z,8.50
2018-12-02T04:37:09.517Z,8.40
2018-12-02T04:39:37.724Z,8.40
2018-12-02T04:42:06.158Z,8.40
2018-12-02T04:44:34.494Z,8.40
2018-12-02T04:47:02.753Z,8.40
2018-12-02T04:49:31.025Z,8.40
2018-12-02T04:51:59.236Z,8.40
2018-12-02T04:54:27.465Z,8.40
2018-12-02T04:56:55.718Z,8.40
2018-12-02T04:59:23.931Z,8.30
2018-12-02T05:01:52.290Z,8.30
2018-12-02T05:04:20.502Z,8.30
2018-12-02T05:06:48.720Z,8.40
2018-12-02T05:09:16.958Z,8.40
2018-12-02T05:11:45.181Z,8.30
2018-12-02T05:14:13.418Z,8.30
2018-12-02T05:16:41.602Z,8.30
2018-12-02T05:19:09.822Z,8.30
2018-12-02T05:21:38.035Z,8.30
2018-12-02T05:24:06.245Z,8.30
2018-12-02T05:26:34.485Z,8.30
2018-12-02T05:29:02.734Z,8.30
2018-12-02T05:31:30.928Z,8.30
2018-12-02T05:33:59.139Z,8.30
2018-12-02T05:36:27.373Z,8.30
2018-12-02T05:38:55.599Z,8.30
2018-12-02T05:41:28.034Z,8.30
2018-12-02T05:43:56.221Z,8.30
2018-12-02T05:46:24.436Z,8.30
2018-12-02T05:48:52.890Z,8.30
2018-12-02T05:51:21.123Z,8.30
2018-12-02T05:53:49.365Z,8.30
2018-12-02T05:56:17.580Z,8.30
2018-12-02T05:58:45.844Z,8.40
2018-12-02T06:01:14.086Z,8.40
2018-12-02T06:03:42.313Z,8.40
2018-12-02T06:06:10.529Z,8.40
2018-12-02T06:08:38.790Z,8.40
2018-12-02T06:11:06.993Z,8.40
2018-12-02T06:13:35.251Z,8.40
2018-12-02T06:16:03.539Z,8.40
2018-12-02T06:18:31.761Z,8.40
2018-12-02T06:20:59.973Z,8.40
2018-12-02T06:23:28.178Z,8.40
2018-12-02T06:25:56.425Z,8.40
2018-12-02T06:28:24.673Z,8.40
2018-12-02T06:30:52.982Z,8.40
2018-12-02T06:33:21.220Z,8.40
2018-12-02T06:35:49.454Z,8.40
2018-12-02T06:38:17.666Z,8.40
2018-12-02T06:40:45.916Z,8.40
2018-12-02T06:43:14.172Z,8.40
2018-12-02T06:45:42.400Z,8.40
2018-12-02T06:48:10.632Z,8.40
2018-12-02T06:50:38.835Z,8.50
2018-12-02T06:53:07.278Z,8.50
2018-12-02T06:55:42.798Z,8.50
2018-12-02T06:58:18.640Z,8.50
2018-12-02T07:01:01.051Z,8.50
2018-12-02T07:03:47.993Z,8.50
2018-12-02T07:06:16.533Z,8.50
2018-12-02T07:08:44.766Z,8.50
2018-12-02T07:11:13.075Z,8.50
2018-12-02T07:13:41.327Z,8.50
2018-12-02T07:16:09.583Z,8.50
2018-12-02T07:18:38.665Z,8.50
2018-12-02T07:21:08.313Z,8.50
2018-12-02T07:23:36.608Z,8.50
2018-12-02T07:26:04.831Z,8.50
2018-12-02T07:28:33.135Z,8.50
2018-12-02T07:31:01.359Z,8.50
2018-12-02T07:33:29.586Z,8.50
2018-12-02T07:35:57.828Z,8.50
2018-12-02T07:38:42.596Z,8.50
2018-12-02T07:41:11.066Z,8.50
2018-12-02T07:43:39.278Z,8.50
2018-12-02T07:46:07.513Z,8.50
2018-12-02T07:48:35.980Z,8.50
2018-12-02T07:51:04.322Z,8.50
2018-12-02T07:53:32.536Z,8.50
2018-12-02T07:56:00.788Z,8.50
2018-12-02T07:58:28.957Z,8.50
2018-12-02T08:00:57.290Z,8.50
2018-12-02T08:03:25.519Z,8.60
2018-12-02T08:05:53.781Z,8.50
2018-12-02T08:08:22.166Z,8.60
2018-12-02T08:10:50.404Z,8.60
2018-12-02T08:13:18.601Z,8.60
2018-12-02T08:15:46.896Z,8.60
2018-12-02T08:18:15.384Z,8.60
2018-12-02T08:20:43.781Z,8.60
2018-12-02T08:23:11.997Z,8.60
2018-12-02T08:25:40.297Z,8.60
2018-12-02T08:28:08.611Z,8.60
2018-12-02T08:30:36.985Z,8.60
2018-12-02T08:33:05.373Z,8.70
2018-12-02T08:35:33.593Z,8.70
2018-12-02T08:38:05.295Z,8.70
2018-12-02T08:40:33.512Z,8.60
2018-12-02T08:43:01.711Z,8.60
2018-12-02T08:45:29.968Z,8.70
2018-12-02T08:47:58.191Z,8.60
2018-12-02T08:50:26.541Z,8.70
2018-12-02T08:52:54.900Z,8.70
2018-12-02T08:55:23.151Z,8.70
2018-12-02T08:57:52.598Z,8.70
2018-12-02T09:00:22.385Z,8.70
2018-12-02T09:03:08.760Z,8.70
2018-12-02T09:05:37.026Z,8.70
2018-12-02T09:08:06.356Z,8.80
2018-12-02T09:10:34.593Z,8.80
2018-12-02T09:13:04.685Z,8.80
2018-12-02T09:15:33.040Z,8.80
2018-12-02T09:18:01.262Z,8.80
2018-12-02T09:20:34.880Z,8.80
2018-12-02T09:23:03.443Z,8.90
2018-12-02T09:25:31.619Z,8.90
2018-12-02T09:27:59.860Z,8.90
2018-12-02T09:30:29.207Z,8.90
2018-12-02T09:32:57.445Z,8.90
2018-12-02T09:35:25.625Z,8.90
2018-12-02T09:37:53.823Z,9.00
2018-12-02T09:40:22.089Z,9.00
2018-12-02T09:42:53.291Z,9.00
2018-12-02T09:45:24.560Z,9.00
2018-12-02T09:47:53.422Z,9.00
2018-12-02T09:50:21.640Z,9.00
2018-12-02T09:52:49.929Z,9.00
2018-12-02T09:55:36.053Z,9.00
2018-12-02T09:58:04.286Z,9.00
2018-12-02T10:00:34.296Z,9.00
2018-12-02T10:03:00.764Z,9.00
2018-12-02T10:05:29.043Z,9.00
2018-12-02T10:07:58.127Z,9.00
2018-12-02T10:10:26.402Z,9.00
2018-12-02T10:12:56.981Z,9.00
2018-12-02T10:15:25.253Z,9.00
2018-12-02T10:17:53.561Z,9.00
2018-12-02T10:20:21.789Z,9.00
2018-12-02T10:22:50.046Z,9.00
2018-12-02T10:25:19.037Z,9.00
2018-12-02T10:27:47.473Z,9.00
2018-12-02T10:30:17.881Z,9.00
2018-12-02T10:32:46.175Z,8.90
2018-12-02T10:35:14.397Z,8.90
2018-12-02T10:37:42.626Z,9.00
2018-12-02T10:40:16.872Z,9.00
2018-12-02T10:42:45.464Z,9.00
2018-12-02T10:45:19.233Z,9.00
2018-12-02T10:47:49.241Z,9.00
2018-12-02T10:50:20.650Z,9.00
2018-12-02T10:52:50.172Z,9.00
2018-12-02T10:55:26.613Z,9.10
2018-12-02T10:57:55.941Z,9.10
2018-12-02T11:00:29.546Z,9.10
2018-12-02T11:02:57.820Z,9.10
2018-12-02T11:05:26.679Z,9.10
2018-12-02T11:07:54.952Z,9.10
2018-12-02T11:10:23.228Z,9.20
2018-12-02T11:12:51.547Z,9.20
2018-12-02T11:15:20.120Z,9.20
2018-12-02T11:17:48.367Z,9.20
2018-12-02T11:20:16.898Z,9.30
2018-12-02T11:22:45.146Z,9.30
2018-12-02T11:25:14.356Z,9.30
2018-12-02T11:27:42.594Z,9.30
2018-12-02T11:30:13.009Z,9.30
2018-12-02T11:32:42.145Z,9.30
2018-12-02T11:35:12.679Z,9.40
2018-12-02T11:37:40.950Z,9.40
2018-12-02T11:40:12.504Z,9.40
2018-12-02T11:42:40.721Z,9.40
2018-12-02T11:45:10.405Z,9.40
2018-12-02T11:47:39.021Z,9.40
2018-12-02T11:50:15.753Z,9.40
2018-12-02T11:52:44.049Z,9.40
2018-12-02T11:55:13.368Z,9.50
2018-12-02T11:57:41.617Z,9.50
2018-12-02T12:00:27.978Z,9.60
2018-12-02T12:02:57.031Z,9.60
2018-12-02T12:05:25.333Z,9.60
2018-12-02T12:07:53.669Z,9.70
2018-12-02T12:10:25.961Z,9.70
2018-12-02T12:12:55.324Z,9.70
2018-12-02T12:15:26.577Z,9.80
2018-12-02T12:17:55.429Z,9.80
2018-12-02T12:20:29.890Z,9.90
2018-12-02T12:22:58.111Z,9.90
2018-12-02T12:25:26.636Z,9.90
2018-12-02T12:27:55.861Z,10.00
2018-12-02T12:30:26.073Z,10.00
2018-12-02T12:32:54.694Z,10.00
2018-12-02T12:35:23.604Z,10.10
2018-12-02T12:37:51.827Z,10.10
2018-12-02T12:40:22.369Z,10.10
2018-12-02T12:43:54.155Z,10.20
2018-12-02T12:46:22.737Z,10.20
2018-12-02T12:48:51.030Z,10.20
2018-12-02T12:51:19.328Z,10.30
2018-12-02T12:53:47.555Z,10.30
2018-12-02T12:56:15.900Z,10.40
2018-12-02T12:58:44.322Z,10.40
2018-12-02T13:01:12.533Z,10.40
2018-12-02T13:03:41.781Z,10.50
2018-12-02T13:06:10.045Z,10.50
2018-12-02T13:08:38.222Z,10.50
2018-12-02T13:11:06.464Z,10.50
2018-12-02T13:13:34.800Z,10.50
2018-12-02T13:16:03.038Z,10.60
2018-12-02T13:18:31.216Z,10.60
2018-12-02T13:20:59.790Z,10.60
2018-12-02T13:23:28.077Z,10.70
2018-12-02T13:25:56.401Z,10.70
2018-12-02T13:28:24.706Z,10.70
2018-12-02T13:30:52.901Z,10.80
2018-12-02T13:33:21.081Z,10.80
2018-12-02T13:35:49.402Z,10.80
2018-12-02T13:38:17.678Z,10.90
2018-12-02T13:40:46.069Z,10.90
2018-12-02T13:43:16.994Z,10.90
2018-12-02T13:45:46.253Z,10.90
2018-12-02T13:48:14.538Z,11.00
2018-12-02T13:50:43.163Z,11.00
2018-12-02T13:53:11.590Z,11.00
2018-12-02T13:55:40.112Z,11.00
2018-12-02T13:58:08.466Z,11.00
2018-12-02T14:00:38.415Z,11.10
2018-12-02T14:03:11.212Z,11.10
2018-12-02T14:05:44.997Z,11.10
2018-12-02T14:08:13.478Z,11.20
2018-12-02T14:10:41.890Z,11.20
2018-12-02T14:13:15.613Z,11.30
2018-12-02T14:15:55.606Z,11.30
2018-12-02T14:18:30.481Z,11.30
2018-12-02T14:20:58.805Z,11.30
2018-12-02T14:23:27.036Z,11.40
2018-12-02T14:25:57.165Z,11.40
2018-12-02T14:28:31.175Z,11.40
2018-12-02T14:30:59.466Z,11.40
2018-12-02T14:33:27.704Z,11.40
2018-12-02T14:35:56.012Z,11.40
2018-12-02T14:38:24.432Z,11.40
2018-12-02T14:40:53.612Z,11.40
2018-12-02T14:43:22.001Z,11.40
2018-12-02T14:45:50.296Z,11.50
2018-12-02T14:48:18.662Z,11.50
2018-12-02T14:50:47.016Z,11.50
2018-12-02T14:53:15.270Z,11.50
2018-12-02T14:55:43.778Z,11.50
2018-12-02T14:58:12.265Z,11.60
2018-12-02T15:00:40.482Z,11.60
2018-12-02T15:03:08.686Z,11.60
2018-12-02T15:05:37.012Z,11.60
2018-12-02T15:08:05.330Z,11.60
2018-12-02T15:10:33.529Z,11.60
2018-12-02T15:13:02.038Z,11.60
2018-12-02T15:15:30.209Z,11.60
2018-12-02T15:17:58.417Z,11.70
2018-12-02T15:20:26.929Z,11.70
2018-12-02T15:22:55.548Z,11.70
2018-12-02T15:25:23.725Z,11.70
2018-12-02T15:27:52.005Z,11.80
2018-12-02T15:30:20.364Z,11.80
2018-12-02T15:32:50.526Z,11.80
2018-12-02T15:35:18.978Z,11.80
2018-12-02T15:37:47.211Z,11.80
2018-12-02T15:40:17.480Z,11.80
2018-12-02T15:42:47.029Z,11.80
2018-12-02T15:45:15.973Z,11.80
2018-12-02T15:47:44.266Z,11.90
2018-12-02T15:50:16.463Z,11.90
2018-12-02T15:52:45.112Z,12.00
2018-12-02T15:55:15.965Z,12.00
2018-12-02T15:57:44.307Z,12.00
2018-12-02T16:00:15.144Z,12.10
2018-12-02T16:02:43.363Z,12.10
2018-12-02T16:05:11.737Z,12.10
2018-12-02T16:07:39.979Z,12.10
2018-12-02T16:10:10.574Z,12.10
2018-12-02T16:12:38.822Z,12.20
2018-12-02T16:15:12.353Z,12.20
2018-12-02T16:17:40.706Z,12.20
2018-12-02T16:20:13.334Z,12.20
2018-12-02T16:22:41.864Z,12.20
2018-12-02T16:25:11.106Z,12.20
2018-12-02T16:27:39.405Z,12.20
2018-12-02T16:30:16.177Z,12.20
2018-12-02T16:32:45.747Z,12.20
2018-12-02T16:35:14.792Z,12.20
2018-12-02T16:37:43.613Z,12.20
2018-12-02T16:40:17.019Z,12.20
2018-12-02T16:42:45.365Z,12.20
2018-12-02T16:45:14.969Z,12.20
2018-12-02T16:47:44.351Z,12.10
2018-12-02T16:50:15.403Z,12.20
2018-12-02T16:52:43.936Z,12.20
2018-12-02T16:55:14.258Z,12.10
2018-12-02T16:57:43.183Z,12.10
2018-12-02T17:00:15.350Z,12.20
2018-12-02T17:02:43.729Z,12.10
2018-12-02T17:05:12.314Z,12.10
2018-12-02T17:07:40.684Z,12.10
2018-12-02T17:10:10.479Z,12.10
2018-12-02T17:12:38.787Z,12.10
2018-12-02T17:15:15.730Z,12.10
2018-12-02T17:17:44.425Z,12.10
2018-12-02T17:20:15.404Z,12.10
2018-12-02T17:22:44.481Z,12.10
2018-12-02T17:25:13.622Z,12.10
2018-12-02T17:27:43.478Z,12.10
2018-12-02T17:30:44.894Z,12.10
2018-12-02T17:33:13.263Z,12.10
2018-12-02T17:35:41.520Z,12.10
2018-12-02T17:38:10.038Z,12.10
2018-12-02T17:40:38.305Z,12.10
2018-12-02T17:43:08.756Z,12.10
2018-12-02T17:45:37.000Z,12.10
2018-12-02T17:48:05.561Z,12.20
2018-12-02T17:50:33.822Z,12.20
2018-12-02T17:53:02.154Z,12.20
2018-12-02T17:55:30.467Z,12.20
2018-12-02T17:57:58.723Z,12.10
2018-12-02T18:00:28.839Z,12.20
2018-12-02T18:02:58.818Z,12.20
2018-12-02T18:05:29.876Z,12.10
2018-12-02T18:07:58.186Z,12.10
2018-12-02T18:10:26.847Z,12.10
2018-12-02T18:12:55.109Z,12.10
2018-12-02T18:15:23.398Z,12.10
2018-12-02T18:17:51.741Z,12.10
2018-12-02T18:20:19.978Z,12.10
2018-12-02T18:22:48.259Z,12.00
2018-12-02T18:25:17.686Z,12.10
2018-12-02T18:27:46.110Z,12.10
2018-12-02T18:30:19.614Z,12.10
2018-12-02T18:32:49.659Z,12.10
2018-12-02T18:35:24.556Z,12.10
2018-12-02T18:37:54.920Z,12.10
2018-12-02T18:40:23.261Z,12.10
2018-12-02T18:42:51.525Z,12.10
2018-12-02T18:45:19.864Z,12.10
2018-12-02T18:47:48.270Z,12.10
2018-12-02T18:50:17.115Z,12.00
2018-12-02T18:52:45.495Z,12.10
2018-12-02T18:55:13.847Z,12.10
2018-12-02T18:57:42.433Z,12.10
2018-12-02T19:00:19.234Z,12.00
2018-12-02T19:02:48.669Z,12.00
2018-12-02T19:05:16.973Z,12.00
2018-12-02T19:07:45.352Z,12.10
2018-12-02T19:10:17.525Z,12.00
2018-12-02T19:12:45.797Z,12.00
2018-12-02T19:15:15.037Z,12.00
2018-12-02T19:17:44.848Z,12.10
2018-12-02T19:20:29.238Z,12.10
2018-12-02T19:22:58.964Z,12.10
2018-12-02T19:25:28.347Z,12.00
2018-12-02T19:27:56.588Z,12.00
2018-12-02T19:30:24.865Z,12.00
2018-12-02T19:32:53.314Z,12.00
2018-12-02T19:35:25.135Z,12.00
2018-12-02T19:37:55.178Z,12.00
2018-12-02T19:40:23.438Z,12.00
2018-12-02T19:42:51.673Z,12.00
2018-12-02T19:45:20.705Z,12.00
2018-12-02T19:47:48.972Z,12.00
2018-12-02T19:50:18.306Z,12.00
2018-12-02T19:52:46.827Z,12.00
2018-12-02T19:55:15.133Z,12.00
2018-12-02T19:57:44.669Z,12.00
2018-12-02T20:00:20.322Z,12.00
2018-12-02T20:02:48.609Z,12.00
2018-12-02T20:05:16.884Z,12.00
2018-12-02T20:07:48.623Z,12.00
2018-12-02T20:10:18.207Z,12.00
2018-12-02T20:12:46.456Z,12.00
2018-12-02T20:15:15.701Z,12.00
2018-12-02T20:17:44.065Z,12.00
2018-12-02T20:20:24.620Z,12.00
2018-12-02T20:22:53.351Z,12.00
2018-12-02T20:25:23.075Z,12.00
2018-12-02T20:27:53.140Z,12.00
2018-12-02T20:30:22.066Z,12.00
2018-12-02T20:32:50.794Z,11.90
2018-12-02T20:35:19.076Z,11.90
2018-12-02T20:40:21.213Z,12.00
2018-12-02T20:42:50.170Z,12.00
2018-12-02T20:45:18.763Z,12.00
2018-12-02T20:47:47.158Z,12.00
2018-12-02T20:50:17.054Z,12.00
2018-12-02T20:52:45.669Z,12.00
2018-12-02T20:55:19.142Z,12.00
2018-12-02T20:57:47.870Z,12.00
2018-12-02T21:00:17.618Z,12.00
2018-12-02T21:02:48.577Z,11.90
2018-12-02T21:05:23.451Z,11.90
2018-12-02T21:07:51.678Z,11.90
2018-12-02T21:10:19.950Z,11.90
2018-12-02T21:12:48.194Z,11.90
2018-12-02T21:15:16.482Z,11.90
2018-12-02T21:17:44.780Z,11.90
2018-12-02T21:20:13.413Z,11.90
2018-12-02T21:22:41.666Z,11.80
2018-12-02T21:25:14.273Z,11.90
2018-12-02T21:27:42.614Z,11.90
2018-12-02T21:30:14.474Z,11.90
2018-12-02T21:32:42.678Z,11.90
2018-12-02T21:35:11.805Z,11.90
2018-12-02T21:37:40.205Z,11.90
2018-12-02T21:40:13.381Z,11.80
2018-12-02T21:42:41.625Z,11.80
2018-12-02T21:45:11.001Z,11.80
2018-12-02T21:47:40.671Z,11.80
2018-12-02T21:50:13.276Z,11.80
2018-12-02T21:52:41.760Z,11.80
2018-12-02T21:55:10.013Z,11.70
2018-12-02T21:57:38.239Z,11.70
2018-12-02T22:00:13.943Z,11.60
2018-12-02T22:02:42.480Z,11.60
2018-12-02T22:05:10.825Z,11.60
2018-12-02T22:07:39.195Z,11.50
2018-12-02T22:10:10.010Z,11.50
2018-12-02T22:12:39.225Z,11.50
2018-12-02T22:15:10.587Z,11.50
2018-12-02T22:17:39.923Z,11.50
2018-12-02T22:20:14.953Z,11.50
2018-12-02T22:22:43.233Z,11.50
2018-12-02T22:25:13.461Z,11.50
2018-12-02T22:27:42.467Z,11.40
2018-12-02T22:30:14.626Z,11.50
2018-12-02T22:32:42.849Z,11.50
2018-12-02T22:35:12.847Z,11.40
2018-12-02T22:37:41.142Z,11.50
2018-12-02T22:40:16.756Z,11.50
2018-12-02T22:42:45.055Z,11.50
2018-12-02T22:45:15.467Z,11.50
2018-12-02T22:47:43.746Z,11.60
2018-12-02T22:50:16.149Z,11.60
2018-12-02T22:52:45.509Z,11.60
2018-12-02T22:55:13.866Z,11.60
2018-12-02T22:57:42.147Z,11.60
2018-12-02T23:00:25.289Z,11.60
2018-12-02T23:02:59.522Z,11.60
2018-12-02T23:05:27.754Z,11.60
2018-12-02T23:07:56.021Z,11.60
2018-12-02T23:10:24.342Z,11.60
2018-12-02T23:12:52.891Z,11.60
2018-12-02T23:15:21.593Z,11.70
2018-12-02T23:17:49.884Z,11.70
2018-12-02T23:20:18.806Z,11.70
2018-12-02T23:22:47.065Z,11.70
2018-12-02T23:25:15.777Z,11.70
2018-12-02T23:27:44.164Z,11.70
2018-12-02T23:30:20.510Z,11.60
2018-12-02T23:32:48.966Z,11.60
2018-12-02T23:35:17.255Z,11.70
2018-12-02T23:37:45.633Z,11.70
2018-12-02T23:40:14.968Z,11.70
2018-12-02T23:42:43.183Z,11.70
2018-12-02T23:45:12.262Z,11.70
2018-12-02T23:47:40.703Z,11.70
2018-12-02T23:50:13.364Z,11.70
2018-12-02T23:52:41.609Z,11.70
2018-12-02T23:55:12.032Z,11.70
2018-12-02T23:57:40.362Z,11.70
